createdAt,value
2022-12-20T00:02:44.955Z,88.80
2022-12-20T00:05:30.423Z,89.43
2022-12-20T00:08:16.098Z,89.44
2022-12-20T00:11:02.811Z,89.68
2022-12-20T00:13:47.947Z,89.14
2022-12-20T00:16:33.755Z,89.43
2022-12-20T00:19:19.270Z,88.91
2022-12-20T00:22:04.385Z,87.67
2022-12-20T00:24:49.544Z,87.92
2022-12-20T00:27:34.818Z,87.91
2022-12-20T00:30:20.131Z,88.21
2022-12-20T00:33:05.342Z,88.67
2022-12-20T00:35:51.799Z,88.98
2022-12-20T00:38:38.037Z,89.13
2022-12-20T00:41:29.657Z,87.85
2022-12-20T00:44:15.675Z,87.96
2022-12-20T00:47:01.181Z,88.14
2022-12-20T00:49:46.397Z,88.50
2022-12-20T00:52:31.891Z,87.49
2022-12-20T00:55:17.367Z,87.36
2022-12-20T00:58:02.570Z,87.61
2022-12-20T01:00:54.071Z,87.72
2022-12-20T01:03:42.676Z,87.70
2022-12-20T01:06:29.401Z,87.21
2022-12-20T01:09:14.774Z,86.74
2022-12-20T01:12:00.398Z,86.87
2022-12-20T01:14:45.958Z,86.74
2022-12-20T01:17:31.104Z,86.42
2022-12-20T01:20:16.860Z,86.53
2022-12-20T01:23:02.448Z,87.40
2022-12-20T01:25:51.069Z,86.54
2022-12-20T01:28:38.397Z,86.97
2022-12-20T01:31:24.582Z,86.13
2022-12-20T01:34:10.875Z,85.92
2022-12-20T01:36:56.362Z,86.33
2022-12-20T01:39:41.884Z,85.79
2022-12-20T01:42:27.011Z,85.32
2022-12-20T01:45:25.620Z,85.47
2022-12-20T01:48:12.110Z,85.78
2022-12-20T01:50:57.582Z,85.17
2022-12-20T01:53:43.514Z,85.17
2022-12-20T01:56:28.823Z,84.81
2022-12-20T01:59:14.142Z,85.19
2022-12-20T02:02:05.072Z,85.60
2022-12-20T02:04:50.523Z,85.28
2022-12-20T02:07:51.586Z,85.21
2022-12-20T02:10:52.466Z,85.59
2022-12-20T02:14:27.658Z,85.19
2022-12-20T02:17:17.744Z,85.62
2022-12-20T02:20:18.403Z,85.22
2022-12-20T02:23:28.069Z,85.48
2022-12-20T02:26:28.379Z,85.54
2022-12-20T02:29:33.726Z,85.49
2022-12-20T02:32:26.530Z,85.33
2022-12-20T02:35:14.912Z,85.30
2022-12-20T02:38:23.539Z,85.19
2022-12-20T02:41:30.333Z,84.25
2022-12-20T02:44:38.547Z,84.62
2022-12-20T02:47:33.853Z,84.01
2022-12-20T02:50:36.828Z,84.08
2022-12-20T02:53:23.660Z,83.68
2022-12-20T02:56:19.913Z,83.32
2022-12-20T02:59:12.488Z,83.21
2022-12-20T03:01:58.589Z,83.65
2022-12-20T03:04:47.283Z,83.62
2022-12-20T03:07:34.442Z,83.41
2022-12-20T03:10:20.957Z,83.27
2022-12-20T03:13:06.050Z,83.24
2022-12-20T03:15:53.286Z,82.93
2022-12-20T03:18:39.098Z,83.62
2022-12-20T03:21:24.227Z,83.12
2022-12-20T03:24:11.143Z,83.64
2022-12-20T03:26:56.048Z,83.34
2022-12-20T03:29:42.977Z,82.84
2022-12-20T03:32:28.245Z,83.14
2022-12-20T03:35:14.296Z,83.14
2022-12-20T03:38:00.072Z,83.11
2022-12-20T03:40:45.769Z,83.23
2022-12-20T03:43:35.125Z,83.29
2022-12-20T03:46:20.975Z,82.80
2022-12-20T03:49:06.362Z,82.32
2022-12-20T03:51:55.856Z,82.12
2022-12-20T03:54:41.859Z,82.34
2022-12-20T03:57:39.927Z,82.57
2022-12-20T04:00:37.173Z,82.23
2022-12-20T04:03:51.783Z,82.54
2022-12-20T04:06:37.013Z,82.64
2022-12-20T04:09:22.417Z,82.26
2022-12-20T04:12:12.909Z,82.72
2022-12-20T04:14:58.505Z,82.59
2022-12-20T04:17:43.972Z,82.78
2022-12-20T04:20:29.659Z,82.75
2022-12-20T04:23:29.466Z,82.88
2022-12-20T04:26:15.469Z,83.46
2022-12-20T04:29:00.796Z,83.40
2022-12-20T04:31:46.859Z,83.37
2022-12-20T04:34:32.578Z,83.51
2022-12-20T04:37:18.674Z,83.35
2022-12-20T04:40:09.733Z,82.82
2022-12-20T04:43:04.389Z,82.87
2022-12-20T04:45:52.913Z,83.93
2022-12-20T04:48:58.468Z,83.53
2022-12-20T04:51:44.680Z,83.35
2022-12-20T04:54:32.960Z,83.83
2022-12-20T04:57:30.519Z,84.45
2022-12-20T05:00:17.189Z,83.90
2022-12-20T05:03:07.398Z,84.16
2022-12-20T05:05:53.542Z,84.24
2022-12-20T05:08:40.426Z,84.24
2022-12-20T05:11:26.295Z,84.33
2022-12-20T05:14:11.731Z,83.97
2022-12-20T05:16:57.302Z,84.10
2022-12-20T05:19:44.345Z,84.14
2022-12-20T05:22:52.049Z,83.53
2022-12-20T05:26:09.391Z,83.63
2022-12-20T05:28:55.454Z,83.01
2022-12-20T05:31:41.261Z,83.50
2022-12-20T05:34:27.017Z,83.77
2022-12-20T05:37:14.389Z,82.96
2022-12-20T05:40:01.478Z,83.16
2022-12-20T05:42:47.163Z,82.58
2022-12-20T05:45:33.172Z,82.65
2022-12-20T05:48:22.501Z,82.99
2022-12-20T05:51:07.727Z,82.79
2022-12-20T05:54:05.722Z,82.18
2022-12-20T05:57:01.193Z,82.62
2022-12-20T05:59:53.102Z,82.69
2022-12-20T06:02:42.477Z,83.26
2022-12-20T06:05:28.022Z,82.91
2022-12-20T06:08:14.549Z,82.73
2022-12-20T06:11:00.933Z,82.98
2022-12-20T06:13:48.009Z,83.40
2022-12-20T06:16:34.501Z,83.18
2022-12-20T06:19:21.843Z,83.34
2022-12-20T06:22:10.411Z,83.24
2022-12-20T06:25:00.458Z,83.68
2022-12-20T06:27:49.985Z,84.45
2022-12-20T06:30:35.447Z,84.52
2022-12-20T06:33:25.745Z,84.68
2022-12-20T06:36:11.764Z,85.79
2022-12-20T06:38:57.412Z,85.42
2022-12-20T06:41:42.988Z,85.86
2022-12-20T06:44:28.204Z,86.14
2022-12-20T06:47:13.649Z,86.55
2022-12-20T06:49:59.289Z,87.43
2022-12-20T06:52:45.283Z,87.53
2022-12-20T06:55:30.700Z,88.04
2022-12-20T06:58:17.572Z,88.03
2022-12-20T07:01:05.594Z,88.08
2022-12-20T07:03:51.228Z,88.11
2022-12-20T07:06:36.621Z,88.80
2022-12-20T07:09:21.654Z,88.57
2022-12-20T07:12:08.738Z,89.48
2022-12-20T07:14:53.888Z,89.03
2022-12-20T07:17:39.431Z,89.54
2022-12-20T07:20:24.726Z,89.43
2022-12-20T07:23:09.980Z,89.96
2022-12-20T07:25:56.623Z,89.78
2022-12-20T07:28:42.716Z,89.68
2022-12-20T07:31:28.204Z,89.56
2022-12-20T07:34:13.657Z,89.97
2022-12-20T07:36:58.950Z,90.13
2022-12-20T07:39:44.154Z,90.54
2022-12-20T07:42:36.175Z,91.16
2022-12-20T07:45:24.357Z,90.83
2022-12-20T07:48:13.885Z,91.58
2022-12-20T07:51:12.061Z,91.97
2022-12-20T07:54:12.206Z,92.18
2022-12-20T07:57:01.754Z,92.22
2022-12-20T07:59:51.205Z,92.56
2022-12-20T08:02:48.669Z,92.94
2022-12-20T08:05:37.346Z,93.04
2022-12-20T08:08:23.375Z,93.21
2022-12-20T08:11:10.735Z,93.52
2022-12-20T08:13:58.331Z,93.74
2022-12-20T08:16:44.293Z,93.65
2022-12-20T08:19:32.486Z,94.21
2022-12-20T08:22:19.244Z,94.55
2022-12-20T08:25:04.813Z,94.30
2022-12-20T08:27:50.305Z,94.72
2022-12-20T08:30:35.595Z,94.64
2022-12-20T08:33:20.995Z,95.15
2022-12-20T08:36:10.881Z,95.21
2022-12-20T08:38:56.449Z,95.18
2022-12-20T08:41:41.755Z,95.79
2022-12-20T08:44:26.780Z,95.43
2022-12-20T08:47:12.127Z,95.17
2022-12-20T08:49:57.602Z,95.90
2022-12-20T08:52:42.648Z,95.29
2022-12-20T08:55:29.398Z,95.38
2022-12-20T08:58:15.698Z,95.21
2022-12-20T09:01:06.413Z,95.25
2022-12-20T09:03:52.196Z,95.72
2022-12-20T09:06:37.378Z,94.89
2022-12-20T09:09:22.374Z,94.77
2022-12-20T09:12:08.001Z,94.75
2022-12-20T09:14:53.356Z,94.43
2022-12-20T09:17:38.740Z,93.99
2022-12-20T09:20:23.827Z,93.92
2022-12-20T09:23:09.264Z,94.12
2022-12-20T09:25:55.724Z,93.85
2022-12-20T09:28:42.491Z,93.69
2022-12-20T09:31:28.204Z,93.18
2022-12-20T09:34:13.398Z,92.57
2022-12-20T09:36:58.694Z,92.83
2022-12-20T09:39:44.177Z,92.27
2022-12-20T09:42:30.826Z,91.89
2022-12-20T09:45:28.810Z,92.01
2022-12-20T09:48:24.193Z,90.76
2022-12-20T09:51:29.695Z,90.23
2022-12-20T09:54:33.023Z,90.03
2022-12-20T09:57:29.986Z,90.05
2022-12-20T10:00:18.013Z,89.88
2022-12-20T10:03:10.153Z,89.83
2022-12-20T10:06:00.350Z,89.35
2022-12-20T10:09:10.679Z,88.92
2022-12-20T10:12:33.510Z,89.25
2022-12-20T10:15:28.764Z,88.97
2022-12-20T10:19:06.863Z,88.79
2022-12-20T10:22:12.458Z,88.61
2022-12-20T10:25:24.767Z,88.59
2022-12-20T10:28:16.822Z,88.21
2022-12-20T10:31:08.261Z,88.01
2022-12-20T10:33:53.775Z,88.02
2022-12-20T10:36:39.752Z,87.98
2022-12-20T10:39:42.243Z,88.00
2022-12-20T10:42:45.814Z,88.36
2022-12-20T10:45:40.873Z,88.45
2022-12-20T10:48:29.264Z,86.87
2022-12-20T10:51:16.935Z,86.10
2022-12-20T10:54:04.117Z,86.58
2022-12-20T10:56:58.703Z,85.51
2022-12-20T10:59:54.567Z,85.49
2022-12-20T11:02:42.697Z,85.08
2022-12-20T11:05:29.220Z,85.32
2022-12-20T11:08:37.569Z,85.14
2022-12-20T11:11:24.685Z,84.75
2022-12-20T11:14:16.280Z,84.83
2022-12-20T11:17:07.759Z,84.73
2022-12-20T11:20:16.198Z,84.00
2022-12-20T11:23:18.181Z,84.18
2022-12-20T11:26:29.608Z,84.13
2022-12-20T11:29:33.127Z,83.91
2022-12-20T11:32:40.573Z,83.49
2022-12-20T11:35:37.254Z,83.72
2022-12-20T11:38:28.070Z,84.01
2022-12-20T11:41:48.916Z,83.63
2022-12-20T11:44:45.721Z,83.78
2022-12-20T11:47:47.637Z,83.36
2022-12-20T11:51:16.114Z,83.22
2022-12-20T11:54:17.046Z,83.49
2022-12-20T11:57:13.498Z,82.87
2022-12-20T12:00:02.588Z,83.58
2022-12-20T12:03:05.859Z,83.35
2022-12-20T12:05:56.447Z,83.52
2022-12-20T12:08:58.502Z,83.10
2022-12-20T12:12:08.189Z,82.98
2022-12-20T12:15:18.473Z,82.45
2022-12-20T12:18:07.896Z,82.23
2022-12-20T12:21:03.523Z,81.88
2022-12-20T12:24:05.751Z,82.00
2022-12-20T12:26:51.911Z,82.06
2022-12-20T12:29:37.344Z,82.46
2022-12-20T12:32:47.472Z,82.78
2022-12-20T12:35:47.295Z,82.46
2022-12-20T12:39:13.383Z,82.69
2022-12-20T12:42:14.001Z,82.84
2022-12-20T12:45:03.130Z,82.78
2022-12-20T12:48:12.200Z,82.55
2022-12-20T12:51:00.768Z,82.40
2022-12-20T12:53:51.347Z,82.62
2022-12-20T12:56:45.504Z,82.54
2022-12-20T12:59:34.442Z,83.13
2022-12-20T13:02:26.713Z,82.99
2022-12-20T13:05:14.585Z,82.43
2022-12-20T13:08:01.132Z,82.15
2022-12-20T13:10:46.274Z,82.09
2022-12-20T13:13:31.841Z,82.14
2022-12-20T13:17:02.137Z,82.06
2022-12-20T13:19:39.032Z,82.43
2022-12-20T13:22:25.936Z,82.22
2022-12-20T13:25:29.901Z,82.35
2022-12-20T13:28:24.048Z,81.59
2022-12-20T13:31:12.704Z,81.60
2022-12-20T13:34:00.960Z,81.33
2022-12-20T13:36:46.360Z,80.95
2022-12-20T13:39:37.025Z,81.54
2022-12-20T13:42:34.105Z,81.24
2022-12-20T13:45:19.773Z,80.53
2022-12-20T13:48:11.478Z,80.31
2022-12-20T13:50:58.094Z,80.09
2022-12-20T13:53:56.569Z,79.86
2022-12-20T13:56:45.561Z,79.52
2022-12-20T13:59:33.272Z,79.66
2022-12-20T14:02:29.717Z,79.78
2022-12-20T14:05:21.502Z,79.59
2022-12-20T14:08:15.766Z,80.03
2022-12-20T14:11:19.264Z,80.10
2022-12-20T14:14:04.837Z,80.13
2022-12-20T14:16:50.386Z,80.08
2022-12-20T14:19:36.742Z,79.59
2022-12-20T14:22:22.080Z,79.28
2022-12-20T14:25:09.054Z,79.28
2022-12-20T14:27:55.792Z,79.52
2022-12-20T14:30:43.875Z,79.34
2022-12-20T14:33:30.769Z,79.22
2022-12-20T14:36:18.307Z,79.43
2022-12-20T14:39:25.151Z,79.40
2022-12-20T14:42:10.464Z,79.16
2022-12-20T14:45:04.214Z,79.07
2022-12-20T14:48:03.330Z,78.27
2022-12-20T14:50:53.657Z,78.79
2022-12-20T14:53:40.366Z,78.70
2022-12-20T14:56:32.247Z,78.36
2022-12-20T14:59:27.113Z,77.99
2022-12-20T15:02:54.416Z,78.07
2022-12-20T15:05:47.023Z,77.72
2022-12-20T15:08:33.478Z,77.70
2022-12-20T15:11:22.694Z,77.84
2022-12-20T15:14:24.836Z,77.36
2022-12-20T15:17:14.488Z,77.36
2022-12-20T15:19:59.711Z,77.27
2022-12-20T15:22:45.394Z,77.74
2022-12-20T15:25:41.204Z,77.01
2022-12-20T15:28:28.742Z,77.12
2022-12-20T15:31:17.126Z,76.72
2022-12-20T15:34:29.132Z,77.27
2022-12-20T15:37:18.707Z,77.20
2022-12-20T15:40:04.120Z,77.70
2022-12-20T15:42:49.259Z,77.69
2022-12-20T15:45:34.613Z,78.05
2022-12-20T15:48:23.277Z,77.37
2022-12-20T15:51:28.541Z,77.71
2022-12-20T15:54:32.716Z,76.78
2022-12-20T15:57:18.511Z,77.04
2022-12-20T16:00:06.216Z,77.56
2022-12-20T16:02:59.364Z,77.70
2022-12-20T16:05:44.881Z,77.51
2022-12-20T16:08:30.784Z,78.05
2022-12-20T16:11:28.111Z,78.08
2022-12-20T16:14:18.739Z,78.22
2022-12-20T16:17:04.503Z,78.23
2022-12-20T16:19:49.791Z,78.21
2022-12-20T16:22:35.268Z,77.32
2022-12-20T16:25:25.886Z,77.54
2022-12-20T16:28:11.234Z,77.24
2022-12-20T16:30:56.536Z,77.82
2022-12-20T16:33:41.905Z,77.77
2022-12-20T16:36:27.473Z,77.11
2022-12-20T16:39:12.661Z,77.97
2022-12-20T16:41:57.895Z,77.40
2022-12-20T16:44:44.944Z,77.43
2022-12-20T16:47:30.830Z,77.68
2022-12-20T16:50:17.076Z,77.00
2022-12-20T16:53:02.813Z,76.51
2022-12-20T16:55:47.863Z,76.74
2022-12-20T16:58:59.934Z,76.99
2022-12-20T17:01:40.334Z,76.66
2022-12-20T17:04:28.801Z,76.17
2022-12-20T17:07:14.152Z,76.95
2022-12-20T17:10:12.336Z,77.16
2022-12-20T17:12:58.019Z,76.63
2022-12-20T17:15:47.564Z,76.51
2022-12-20T17:18:32.904Z,76.14
2022-12-20T17:21:21.300Z,76.38
2022-12-20T17:24:14.501Z,76.43
2022-12-20T17:27:00.321Z,76.80
2022-12-20T17:29:45.767Z,76.04
2022-12-20T17:32:34.241Z,76.85
2022-12-20T17:35:26.541Z,76.45
2022-12-20T17:38:12.003Z,76.06
2022-12-20T17:40:57.320Z,76.19
2022-12-20T17:43:42.477Z,76.29
2022-12-20T17:46:28.450Z,76.45
2022-12-20T17:49:14.287Z,76.09
2022-12-20T17:51:59.713Z,75.94
2022-12-20T17:54:44.960Z,75.42
2022-12-20T17:57:30.349Z,75.32
2022-12-20T18:00:19.982Z,75.34
2022-12-20T18:03:05.616Z,75.17
2022-12-20T18:05:52.139Z,75.68
2022-12-20T18:08:37.730Z,75.87
2022-12-20T18:11:26.834Z,75.88
2022-12-20T18:14:12.820Z,75.32
2022-12-20T18:16:58.717Z,75.69
2022-12-20T18:19:43.985Z,75.37
2022-12-20T18:22:29.291Z,74.93
2022-12-20T18:25:18.190Z,75.34
2022-12-20T18:28:03.771Z,76.56
2022-12-20T18:30:48.935Z,76.91
2022-12-20T18:33:35.138Z,77.13
2022-12-20T18:36:22.972Z,77.72
2022-12-20T18:39:08.666Z,77.51
2022-12-20T18:41:53.903Z,77.77
2022-12-20T18:44:39.246Z,78.63
2022-12-20T18:47:24.883Z,78.46
2022-12-20T18:50:13.100Z,78.72
2022-12-20T18:53:01.507Z,78.17
2022-12-20T18:55:48.277Z,78.32
2022-12-20T18:58:34.033Z,78.13
2022-12-20T19:01:28.257Z,78.12
2022-12-20T19:04:15.104Z,78.12
2022-12-20T19:07:01.724Z,78.05
2022-12-20T19:09:47.098Z,77.66
2022-12-20T19:12:34.071Z,77.63
2022-12-20T19:15:19.204Z,77.98
2022-12-20T19:18:05.189Z,78.18
2022-12-20T19:20:50.393Z,78.07
2022-12-20T19:23:37.139Z,78.35
2022-12-20T19:26:25.711Z,78.38
2022-12-20T19:29:14.571Z,78.91
2022-12-20T19:31:59.913Z,79.87
2022-12-20T19:34:45.199Z,80.74
2022-12-20T19:37:36.976Z,81.01
2022-12-20T19:40:22.536Z,83.90
2022-12-20T19:43:07.819Z,87.61
2022-12-20T19:45:52.934Z,85.10
2022-12-20T19:48:38.682Z,84.39
2022-12-20T19:51:26.056Z,84.38
2022-12-20T19:54:12.216Z,84.64
2022-12-20T19:56:59.756Z,84.84
2022-12-20T19:59:55.403Z,84.90
2022-12-20T20:02:47.659Z,84.17
2022-12-20T20:05:39.436Z,87.21
2022-12-20T20:08:25.225Z,84.78
2022-12-20T20:11:11.247Z,84.88
2022-12-20T20:13:56.922Z,87.38
2022-12-20T20:16:42.180Z,89.63
2022-12-20T20:19:27.396Z,90.22
2022-12-20T20:22:17.770Z,87.36
2022-12-20T20:25:08.132Z,88.94
2022-12-20T20:27:53.749Z,85.70
2022-12-20T20:30:43.866Z,84.63
2022-12-20T20:33:30.882Z,83.44
2022-12-20T20:36:21.592Z,82.34
2022-12-20T20:39:07.095Z,81.71
2022-12-20T20:41:52.257Z,81.21
2022-12-20T20:44:37.734Z,81.66
2022-12-20T20:47:23.540Z,81.74
2022-12-20T20:50:09.085Z,81.73
2022-12-20T20:52:54.625Z,81.66
2022-12-20T20:55:40.340Z,81.87
2022-12-20T20:58:26.128Z,82.37
2022-12-20T21:01:11.572Z,82.74
2022-12-20T21:03:57.275Z,82.24
2022-12-20T21:06:42.920Z,82.11
2022-12-20T21:09:28.745Z,82.12
2022-12-20T21:12:15.834Z,81.75
2022-12-20T21:15:22.024Z,82.10
2022-12-20T21:18:06.848Z,81.64
2022-12-20T21:20:52.170Z,81.93
2022-12-20T21:23:38.742Z,81.72
2022-12-20T21:26:27.950Z,81.86
2022-12-20T21:29:13.477Z,81.33
2022-12-20T21:31:58.743Z,81.72
2022-12-20T21:34:46.867Z,81.59
2022-12-20T21:37:32.473Z,81.51
2022-12-20T21:40:18.071Z,81.63
2022-12-20T21:43:03.444Z,81.47
2022-12-20T21:45:50.370Z,81.60
2022-12-20T21:48:35.832Z,81.86
2022-12-20T21:51:23.762Z,81.65
2022-12-20T21:54:09.298Z,81.70
2022-12-20T21:56:54.504Z,81.28
2022-12-20T21:59:39.855Z,81.06
2022-12-20T22:02:25.342Z,81.13
2022-12-20T22:05:10.636Z,80.83
2022-12-20T22:07:56.049Z,81.03
2022-12-20T22:10:42.479Z,80.89
2022-12-20T22:13:29.193Z,81.27
2022-12-20T22:16:16.139Z,80.80
2022-12-20T22:19:02.444Z,80.46
2022-12-20T22:21:53.707Z,80.35
2022-12-20T22:24:43.088Z,80.25
2022-12-20T22:27:28.425Z,80.62
2022-12-20T22:30:14.261Z,80.23
2022-12-20T22:32:59.731Z,80.05
2022-12-20T22:35:45.043Z,80.71
2022-12-20T22:38:30.453Z,80.45
2022-12-20T22:41:30.457Z,80.48
2022-12-20T22:44:15.755Z,81.16
2022-12-20T22:47:00.915Z,81.05
2022-12-20T22:49:46.375Z,80.86
2022-12-20T22:52:33.108Z,80.88
2022-12-20T22:55:18.581Z,80.78
2022-12-20T22:58:03.624Z,81.49
2022-12-20T23:00:49.207Z,81.54
2022-12-20T23:03:35.842Z,81.02
2022-12-20T23:06:21.904Z,81.30
2022-12-20T23:09:07.066Z,80.54
2022-12-20T23:12:11.590Z,80.91
2022-12-20T23:15:26.109Z,80.55
2022-12-20T23:18:11.563Z,80.60
2022-12-20T23:21:15.306Z,81.18
2022-12-20T23:24:00.263Z,81.51
2022-12-20T23:26:45.886Z,82.00
2022-12-20T23:29:31.082Z,82.79
2022-12-20T23:32:16.495Z,83.63
2022-12-20T23:35:08.346Z,83.87
2022-12-20T23:37:58.028Z,83.86
2022-12-20T23:40:43.200Z,85.08
2022-12-20T23:43:30.188Z,85.32
2022-12-20T23:46:18.322Z,86.24
2022-12-20T23:49:03.772Z,86.39
2022-12-20T23:51:49.011Z,86.39
2022-12-20T23:54:34.125Z,86.81
2022-12-20T23:57:19.671Z,86.92
